sensor_id;sensor_type;location;lat;lon;timestamp;P1;durP1;ratioP1;P2;durP2;ratioP2
33858;SDS011;20156;47.486;12.074;2024-02-16T00:02:15;7.93;;;4.57;;
33858;SDS011;20156;47.486;12.074;2024-02-16T00:04:41;5.00;;;3.73;;
33858;SDS011;20156;47.486;12.074;2024-02-16T00:07:06;4.33;;;3.50;;
33858;SDS011;20156;47.486;12.074;2024-02-16T00:09:31;7.00;;;3.97;;
33858;SDS011;20156;47.486;12.074;2024-02-16T00:11:58;5.23;;;4.07;;
33858;SDS011;20156;47.486;12.074;2024-02-16T00:14:23;5.53;;;3.77;;
33858;SDS011;20156;47.486;12.074;2024-02-16T00:16:48;5.30;;;3.80;;
33858;SDS011;20156;47.486;12.074;2024-02-16T00:19:14;8.53;;;4.80;;
33858;SDS011;20156;47.486;12.074;2024-02-16T00:21:39;9.40;;;4.57;;
33858;SDS011;20156;47.486;12.074;2024-02-16T00:24:07;5.80;;;3.90;;
33858;SDS011;20156;47.486;12.074;2024-02-16T00:26:32;4.87;;;3.57;;
33858;SDS011;20156;47.486;12.074;2024-02-16T00:28:57;4.47;;;3.70;;
33858;SDS011;20156;47.486;12.074;2024-02-16T00:31:22;5.77;;;3.90;;
33858;SDS011;20156;47.486;12.074;2024-02-16T00:33:48;5.03;;;3.57;;
33858;SDS011;20156;47.486;12.074;2024-02-16T00:36:13;6.50;;;4.20;;
33858;SDS011;20156;47.486;12.074;2024-02-16T00:38:39;6.00;;;3.60;;
33858;SDS011;20156;47.486;12.074;2024-02-16T00:41:04;6.97;;;4.37;;
33858;SDS011;20156;47.486;12.074;2024-02-16T00:43:30;5.67;;;4.10;;
33858;SDS011;20156;47.486;12.074;2024-02-16T00:45:55;8.67;;;4.20;;
33858;SDS011;20156;47.486;12.074;2024-02-16T00:48:21;6.20;;;4.07;;
33858;SDS011;20156;47.486;12.074;2024-02-16T00:50:46;5.53;;;3.60;;
33858;SDS011;20156;47.486;12.074;2024-02-16T00:53:12;4.43;;;3.87;;
33858;SDS011;20156;47.486;12.074;2024-02-16T00:55:37;5.03;;;3.90;;
33858;SDS011;20156;47.486;12.074;2024-02-16T00:58:03;5.57;;;3.67;;
33858;SDS011;20156;47.486;12.074;2024-02-16T01:00:28;5.47;;;3.80;;
33858;SDS011;20156;47.486;12.074;2024-02-16T01:02:54;4.37;;;3.13;;
33858;SDS011;20156;47.486;12.074;2024-02-16T01:05:19;4.40;;;2.57;;
33858;SDS011;20156;47.486;12.074;2024-02-16T01:07:44;4.27;;;2.57;;
33858;SDS011;20156;47.486;12.074;2024-02-16T01:10:10;4.43;;;3.60;;
33858;SDS011;20156;47.486;12.074;2024-02-16T01:12:37;4.20;;;3.20;;
33858;SDS011;20156;47.486;12.074;2024-02-16T01:15:02;3.70;;;3.07;;
33858;SDS011;20156;47.486;12.074;2024-02-16T01:17:28;5.30;;;3.50;;
33858;SDS011;20156;47.486;12.074;2024-02-16T01:19:54;4.47;;;3.63;;
33858;SDS011;20156;47.486;12.074;2024-02-16T01:22:19;8.90;;;4.70;;
33858;SDS011;20156;47.486;12.074;2024-02-16T01:24:45;5.87;;;4.37;;
33858;SDS011;20156;47.486;12.074;2024-02-16T01:27:10;7.20;;;5.03;;
33858;SDS011;20156;47.486;12.074;2024-02-16T01:29:36;9.37;;;5.47;;
33858;SDS011;20156;47.486;12.074;2024-02-16T01:32:01;6.13;;;4.83;;
33858;SDS011;20156;47.486;12.074;2024-02-16T01:34:27;8.47;;;4.70;;
33858;SDS011;20156;47.486;12.074;2024-02-16T01:36:55;6.27;;;4.40;;
33858;SDS011;20156;47.486;12.074;2024-02-16T01:39:20;6.90;;;5.37;;
33858;SDS011;20156;47.486;12.074;2024-02-16T01:41:45;6.10;;;4.90;;
33858;SDS011;20156;47.486;12.074;2024-02-16T01:44:11;8.40;;;4.83;;
33858;SDS011;20156;47.486;12.074;2024-02-16T01:46:36;5.03;;;4.07;;
33858;SDS011;20156;47.486;12.074;2024-02-16T01:49:01;7.27;;;5.13;;
33858;SDS011;20156;47.486;12.074;2024-02-16T01:51:27;6.90;;;5.20;;
33858;SDS011;20156;47.486;12.074;2024-02-16T01:53:52;6.13;;;4.70;;
33858;SDS011;20156;47.486;12.074;2024-02-16T01:56:19;5.37;;;3.90;;
33858;SDS011;20156;47.486;12.074;2024-02-16T01:58:46;4.70;;;3.60;;
33858;SDS011;20156;47.486;12.074;2024-02-16T02:01:12;5.40;;;4.10;;
33858;SDS011;20156;47.486;12.074;2024-02-16T02:03:37;5.43;;;4.17;;
33858;SDS011;20156;47.486;12.074;2024-02-16T02:06:02;5.17;;;3.93;;
33858;SDS011;20156;47.486;12.074;2024-02-16T02:08:28;5.97;;;3.70;;
33858;SDS011;20156;47.486;12.074;2024-02-16T02:10:53;4.33;;;3.50;;
33858;SDS011;20156;47.486;12.074;2024-02-16T02:13:18;7.40;;;3.60;;
33858;SDS011;20156;47.486;12.074;2024-02-16T02:15:45;4.40;;;3.93;;
33858;SDS011;20156;47.486;12.074;2024-02-16T02:18:10;5.63;;;3.47;;
33858;SDS011;20156;47.486;12.074;2024-02-16T02:20:35;4.37;;;3.30;;
33858;SDS011;20156;47.486;12.074;2024-02-16T02:23:00;4.80;;;3.10;;
33858;SDS011;20156;47.486;12.074;2024-02-16T02:25:26;5.27;;;3.60;;
33858;SDS011;20156;47.486;12.074;2024-02-16T02:27:53;5.37;;;3.50;;
33858;SDS011;20156;47.486;12.074;2024-02-16T02:30:19;6.13;;;3.73;;
33858;SDS011;20156;47.486;12.074;2024-02-16T02:32:45;4.03;;;3.60;;
33858;SDS011;20156;47.486;12.074;2024-02-16T02:35:11;5.17;;;3.60;;
33858;SDS011;20156;47.486;12.074;2024-02-16T02:37:36;3.90;;;3.40;;
33858;SDS011;20156;47.486;12.074;2024-02-16T02:40:02;3.83;;;3.10;;
33858;SDS011;20156;47.486;12.074;2024-02-16T02:42:30;5.17;;;3.40;;
33858;SDS011;20156;47.486;12.074;2024-02-16T02:44:56;3.83;;;3.13;;
33858;SDS011;20156;47.486;12.074;2024-02-16T02:47:21;4.43;;;3.40;;
33858;SDS011;20156;47.486;12.074;2024-02-16T02:49:46;4.63;;;3.33;;
33858;SDS011;20156;47.486;12.074;2024-02-16T02:52:11;4.93;;;3.50;;
33858;SDS011;20156;47.486;12.074;2024-02-16T02:54:37;3.57;;;2.90;;
33858;SDS011;20156;47.486;12.074;2024-02-16T02:57:02;6.37;;;3.40;;
33858;SDS011;20156;47.486;12.074;2024-02-16T02:59:28;4.70;;;2.90;;
33858;SDS011;20156;47.486;12.074;2024-02-16T03:01:53;3.40;;;2.80;;
33858;SDS011;20156;47.486;12.074;2024-02-16T03:04:18;3.83;;;2.77;;
33858;SDS011;20156;47.486;12.074;2024-02-16T03:06:43;3.70;;;2.83;;
33858;SDS011;20156;47.486;12.074;2024-02-16T03:09:10;4.93;;;2.90;;
33858;SDS011;20156;47.486;12.074;2024-02-16T03:11:35;3.63;;;2.80;;
33858;SDS011;20156;47.486;12.074;2024-02-16T03:14:00;4.37;;;3.10;;
33858;SDS011;20156;47.486;12.074;2024-02-16T03:16:26;4.23;;;2.97;;
33858;SDS011;20156;47.486;12.074;2024-02-16T03:18:52;4.90;;;3.00;;
33858;SDS011;20156;47.486;12.074;2024-02-16T03:21:17;3.17;;;2.87;;
33858;SDS011;20156;47.486;12.074;2024-02-16T03:23:42;4.67;;;3.20;;
33858;SDS011;20156;47.486;12.074;2024-02-16T03:26:15;5.00;;;3.03;;
33858;SDS011;20156;47.486;12.074;2024-02-16T03:28:40;4.37;;;3.43;;
33858;SDS011;20156;47.486;12.074;2024-02-16T03:31:06;3.60;;;3.03;;
33858;SDS011;20156;47.486;12.074;2024-02-16T03:33:33;3.27;;;2.70;;
33858;SDS011;20156;47.486;12.074;2024-02-16T03:35:58;4.13;;;3.43;;
33858;SDS011;20156;47.486;12.074;2024-02-16T03:38:24;3.77;;;3.37;;
33858;SDS011;20156;47.486;12.074;2024-02-16T03:40:50;3.80;;;3.40;;
33858;SDS011;20156;47.486;12.074;2024-02-16T03:43:15;4.83;;;3.77;;
33858;SDS011;20156;47.486;12.074;2024-02-16T03:45:40;3.07;;;2.77;;
33858;SDS011;20156;47.486;12.074;2024-02-16T03:48:06;3.80;;;2.20;;
33858;SDS011;20156;47.486;12.074;2024-02-16T03:50:31;2.77;;;2.43;;
33858;SDS011;20156;47.486;12.074;2024-02-16T03:52:56;3.50;;;2.67;;
33858;SDS011;20156;47.486;12.074;2024-02-16T03:55:22;4.63;;;3.63;;
33858;SDS011;20156;47.486;12.074;2024-02-16T03:57:47;7.23;;;4.77;;
33858;SDS011;20156;47.486;12.074;2024-02-16T04:00:12;8.73;;;4.30;;
33858;SDS011;20156;47.486;12.074;2024-02-16T04:02:39;4.37;;;3.60;;
33858;SDS011;20156;47.486;12.074;2024-02-16T04:05:04;5.07;;;4.00;;
33858;SDS011;20156;47.486;12.074;2024-02-16T04:07:29;5.23;;;3.07;;
33858;SDS011;20156;47.486;12.074;2024-02-16T04:09:55;4.83;;;3.63;;
33858;SDS011;20156;47.486;12.074;2024-02-16T04:12:20;4.60;;;3.73;;
33858;SDS011;20156;47.486;12.074;2024-02-16T04:14:45;3.70;;;3.30;;
33858;SDS011;20156;47.486;12.074;2024-02-16T04:17:10;4.30;;;3.17;;
33858;SDS011;20156;47.486;12.074;2024-02-16T04:19:36;4.97;;;3.20;;
33858;SDS011;20156;47.486;12.074;2024-02-16T04:22:01;4.67;;;3.90;;
33858;SDS011;20156;47.486;12.074;2024-02-16T04:24:28;6.93;;;4.53;;
33858;SDS011;20156;47.486;12.074;2024-02-16T04:26:53;8.83;;;6.47;;
33858;SDS011;20156;47.486;12.074;2024-02-16T04:29:19;7.37;;;6.07;;
33858;SDS011;20156;47.486;12.074;2024-02-16T04:31:44;6.33;;;5.43;;
33858;SDS011;20156;47.486;12.074;2024-02-16T04:34:11;6.27;;;4.83;;
33858;SDS011;20156;47.486;12.074;2024-02-16T04:36:37;6.37;;;3.80;;
33858;SDS011;20156;47.486;12.074;2024-02-16T04:39:02;4.43;;;3.53;;
33858;SDS011;20156;47.486;12.074;2024-02-16T04:41:28;5.20;;;3.27;;
33858;SDS011;20156;47.486;12.074;2024-02-16T04:43:54;6.10;;;3.47;;
33858;SDS011;20156;47.486;12.074;2024-02-16T04:46:19;3.67;;;3.00;;
33858;SDS011;20156;47.486;12.074;2024-02-16T04:48:44;3.80;;;2.80;;
33858;SDS011;20156;47.486;12.074;2024-02-16T04:51:10;3.77;;;2.97;;
33858;SDS011;20156;47.486;12.074;2024-02-16T04:53:35;3.73;;;3.13;;
33858;SDS011;20156;47.486;12.074;2024-02-16T04:56:01;3.60;;;3.30;;
33858;SDS011;20156;47.486;12.074;2024-02-16T04:58:27;4.37;;;3.17;;
33858;SDS011;20156;47.486;12.074;2024-02-16T05:00:52;3.27;;;2.93;;
33858;SDS011;20156;47.486;12.074;2024-02-16T05:03:17;3.80;;;3.13;;
33858;SDS011;20156;47.486;12.074;2024-02-16T05:05:43;4.13;;;3.40;;
33858;SDS011;20156;47.486;12.074;2024-02-16T05:08:09;3.40;;;2.97;;
33858;SDS011;20156;47.486;12.074;2024-02-16T05:10:34;3.73;;;2.93;;
33858;SDS011;20156;47.486;12.074;2024-02-16T05:12:59;6.23;;;3.10;;
33858;SDS011;20156;47.486;12.074;2024-02-16T05:15:24;3.43;;;2.80;;
33858;SDS011;20156;47.486;12.074;2024-02-16T05:17:50;4.97;;;3.10;;
33858;SDS011;20156;47.486;12.074;2024-02-16T05:20:16;4.40;;;2.73;;
33858;SDS011;20156;47.486;12.074;2024-02-16T05:22:44;3.67;;;3.30;;
33858;SDS011;20156;47.486;12.074;2024-02-16T05:25:11;4.47;;;3.80;;
33858;SDS011;20156;47.486;12.074;2024-02-16T05:27:36;4.80;;;3.00;;
33858;SDS011;20156;47.486;12.074;2024-02-16T05:30:03;3.53;;;2.70;;
33858;SDS011;20156;47.486;12.074;2024-02-16T05:32:29;4.37;;;3.67;;
33858;SDS011;20156;47.486;12.074;2024-02-16T05:34:54;5.37;;;4.40;;
33858;SDS011;20156;47.486;12.074;2024-02-16T05:37:19;6.77;;;3.90;;
33858;SDS011;20156;47.486;12.074;2024-02-16T05:39:47;4.57;;;3.20;;
33858;SDS011;20156;47.486;12.074;2024-02-16T05:42:33;5.70;;;4.33;;
33858;SDS011;20156;47.486;12.074;2024-02-16T05:44:58;4.10;;;3.43;;
33858;SDS011;20156;47.486;12.074;2024-02-16T05:47:23;4.07;;;3.43;;
33858;SDS011;20156;47.486;12.074;2024-02-16T05:49:49;6.30;;;4.20;;
33858;SDS011;20156;47.486;12.074;2024-02-16T05:52:14;3.80;;;3.40;;
33858;SDS011;20156;47.486;12.074;2024-02-16T05:54:46;3.57;;;3.27;;
33858;SDS011;20156;47.486;12.074;2024-02-16T05:57:13;4.90;;;3.83;;
33858;SDS011;20156;47.486;12.074;2024-02-16T05:59:38;5.60;;;3.30;;
33858;SDS011;20156;47.486;12.074;2024-02-16T06:02:04;4.70;;;3.40;;
33858;SDS011;20156;47.486;12.074;2024-02-16T06:04:30;5.23;;;4.20;;
33858;SDS011;20156;47.486;12.074;2024-02-16T06:06:55;7.23;;;4.97;;
33858;SDS011;20156;47.486;12.074;2024-02-16T06:09:20;16.30;;;9.43;;
33858;SDS011;20156;47.486;12.074;2024-02-16T06:11:45;15.23;;;8.80;;
33858;SDS011;20156;47.486;12.074;2024-02-16T06:14:10;9.93;;;6.43;;
33858;SDS011;20156;47.486;12.074;2024-02-16T06:16:36;9.23;;;6.50;;
33858;SDS011;20156;47.486;12.074;2024-02-16T06:19:01;9.13;;;6.47;;
33858;SDS011;20156;47.486;12.074;2024-02-16T06:21:26;9.13;;;5.10;;
33858;SDS011;20156;47.486;12.074;2024-02-16T06:23:51;11.70;;;8.13;;
33858;SDS011;20156;47.486;12.074;2024-02-16T06:26:17;12.47;;;7.43;;
33858;SDS011;20156;47.486;12.074;2024-02-16T06:28:42;8.17;;;5.90;;
33858;SDS011;20156;47.486;12.074;2024-02-16T06:31:07;9.90;;;6.23;;
33858;SDS011;20156;47.486;12.074;2024-02-16T06:33:32;8.27;;;5.83;;
33858;SDS011;20156;47.486;12.074;2024-02-16T06:35:58;6.80;;;4.87;;
33858;SDS011;20156;47.486;12.074;2024-02-16T06:38:23;8.13;;;6.20;;
33858;SDS011;20156;47.486;12.074;2024-02-16T06:40:48;8.13;;;5.23;;
33858;SDS011;20156;47.486;12.074;2024-02-16T06:43:14;5.50;;;4.53;;
33858;SDS011;20156;47.486;12.074;2024-02-16T06:45:39;6.67;;;4.87;;
33858;SDS011;20156;47.486;12.074;2024-02-16T06:48:05;6.07;;;4.70;;
33858;SDS011;20156;47.486;12.074;2024-02-16T06:50:30;6.70;;;5.20;;
33858;SDS011;20156;47.486;12.074;2024-02-16T06:52:56;7.33;;;4.70;;
33858;SDS011;20156;47.486;12.074;2024-02-16T06:55:21;6.00;;;4.17;;
33858;SDS011;20156;47.486;12.074;2024-02-16T06:57:46;6.17;;;3.93;;
33858;SDS011;20156;47.486;12.074;2024-02-16T07:00:11;4.03;;;3.63;;
33858;SDS011;20156;47.486;12.074;2024-02-16T07:02:38;4.73;;;3.53;;
33858;SDS011;20156;47.486;12.074;2024-02-16T07:05:03;4.37;;;3.00;;
33858;SDS011;20156;47.486;12.074;2024-02-16T07:07:29;5.00;;;3.53;;
33858;SDS011;20156;47.486;12.074;2024-02-16T07:09:54;5.23;;;3.60;;
33858;SDS011;20156;47.486;12.074;2024-02-16T07:12:20;11.13;;;7.23;;
33858;SDS011;20156;47.486;12.074;2024-02-16T07:14:46;11.83;;;7.97;;
33858;SDS011;20156;47.486;12.074;2024-02-16T07:17:12;9.10;;;5.83;;
33858;SDS011;20156;47.486;12.074;2024-02-16T07:19:37;5.40;;;3.90;;
33858;SDS011;20156;47.486;12.074;2024-02-16T07:22:02;5.57;;;3.70;;
33858;SDS011;20156;47.486;12.074;2024-02-16T07:24:27;3.73;;;3.27;;
33858;SDS011;20156;47.486;12.074;2024-02-16T07:26:53;5.67;;;3.37;;
33858;SDS011;20156;47.486;12.074;2024-02-16T07:29:19;4.60;;;3.97;;
33858;SDS011;20156;47.486;12.074;2024-02-16T07:31:44;7.20;;;5.00;;
33858;SDS011;20156;47.486;12.074;2024-02-16T07:34:09;13.67;;;8.77;;
33858;SDS011;20156;47.486;12.074;2024-02-16T07:36:36;19.37;;;11.20;;
33858;SDS011;20156;47.486;12.074;2024-02-16T07:39:01;13.73;;;9.50;;
33858;SDS011;20156;47.486;12.074;2024-02-16T07:41:29;19.77;;;12.03;;
33858;SDS011;20156;47.486;12.074;2024-02-16T07:43:54;11.70;;;8.00;;
33858;SDS011;20156;47.486;12.074;2024-02-16T07:46:20;12.33;;;7.73;;
33858;SDS011;20156;47.486;12.074;2024-02-16T07:48:45;15.37;;;8.80;;
33858;SDS011;20156;47.486;12.074;2024-02-16T07:51:10;8.77;;;6.87;;
33858;SDS011;20156;47.486;12.074;2024-02-16T07:53:36;13.83;;;8.83;;
33858;SDS011;20156;47.486;12.074;2024-02-16T07:56:01;11.00;;;7.07;;
33858;SDS011;20156;47.486;12.074;2024-02-16T07:58:26;7.43;;;5.17;;
33858;SDS011;20156;47.486;12.074;2024-02-16T08:00:51;8.53;;;5.27;;
33858;SDS011;20156;47.486;12.074;2024-02-16T08:03:17;10.47;;;5.87;;
33858;SDS011;20156;47.486;12.074;2024-02-16T08:05:42;6.53;;;5.00;;
33858;SDS011;20156;47.486;12.074;2024-02-16T08:08:07;5.73;;;4.50;;
33858;SDS011;20156;47.486;12.074;2024-02-16T08:10:33;6.70;;;4.90;;
33858;SDS011;20156;47.486;12.074;2024-02-16T08:12:58;5.90;;;4.33;;
33858;SDS011;20156;47.486;12.074;2024-02-16T08:15:23;6.23;;;4.80;;
33858;SDS011;20156;47.486;12.074;2024-02-16T08:17:49;7.07;;;4.23;;
33858;SDS011;20156;47.486;12.074;2024-02-16T08:20:15;6.07;;;4.53;;
33858;SDS011;20156;47.486;12.074;2024-02-16T08:22:41;6.40;;;4.63;;
33858;SDS011;20156;47.486;12.074;2024-02-16T08:25:06;4.97;;;4.17;;
33858;SDS011;20156;47.486;12.074;2024-02-16T08:27:32;6.00;;;3.90;;
33858;SDS011;20156;47.486;12.074;2024-02-16T08:29:57;6.57;;;3.93;;
33858;SDS011;20156;47.486;12.074;2024-02-16T08:32:22;7.67;;;3.70;;
33858;SDS011;20156;47.486;12.074;2024-02-16T08:34:48;5.50;;;3.40;;
33858;SDS011;20156;47.486;12.074;2024-02-16T08:37:13;6.47;;;4.27;;
33858;SDS011;20156;47.486;12.074;2024-02-16T08:39:38;6.47;;;4.10;;
33858;SDS011;20156;47.486;12.074;2024-02-16T08:42:04;10.77;;;6.17;;
33858;SDS011;20156;47.486;12.074;2024-02-16T08:44:29;8.43;;;6.17;;
33858;SDS011;20156;47.486;12.074;2024-02-16T08:46:54;7.97;;;5.87;;
33858;SDS011;20156;47.486;12.074;2024-02-16T08:49:20;6.43;;;5.30;;
33858;SDS011;20156;47.486;12.074;2024-02-16T08:51:46;6.43;;;4.70;;
33858;SDS011;20156;47.486;12.074;2024-02-16T08:54:12;6.37;;;4.80;;
33858;SDS011;20156;47.486;12.074;2024-02-16T08:56:37;6.27;;;5.33;;
33858;SDS011;20156;47.486;12.074;2024-02-16T08:59:04;8.93;;;6.00;;
33858;SDS011;20156;47.486;12.074;2024-02-16T09:01:30;7.03;;;5.43;;
33858;SDS011;20156;47.486;12.074;2024-02-16T09:03:55;7.73;;;5.90;;
33858;SDS011;20156;47.486;12.074;2024-02-16T09:06:20;7.67;;;4.90;;
33858;SDS011;20156;47.486;12.074;2024-02-16T09:08:46;6.50;;;5.20;;
33858;SDS011;20156;47.486;12.074;2024-02-16T09:11:11;6.13;;;4.90;;
33858;SDS011;20156;47.486;12.074;2024-02-16T09:13:39;5.60;;;4.40;;
33858;SDS011;20156;47.486;12.074;2024-02-16T09:16:04;4.33;;;3.93;;
33858;SDS011;20156;47.486;12.074;2024-02-16T09:18:30;4.10;;;3.70;;
33858;SDS011;20156;47.486;12.074;2024-02-16T09:20:55;5.37;;;4.30;;
33858;SDS011;20156;47.486;12.074;2024-02-16T09:23:20;10.77;;;6.73;;
33858;SDS011;20156;47.486;12.074;2024-02-16T09:25:46;12.13;;;7.33;;
33858;SDS011;20156;47.486;12.074;2024-02-16T09:28:11;14.57;;;6.40;;
33858;SDS011;20156;47.486;12.074;2024-02-16T09:30:37;8.83;;;5.80;;
33858;SDS011;20156;47.486;12.074;2024-02-16T09:33:02;8.43;;;5.00;;
33858;SDS011;20156;47.486;12.074;2024-02-16T09:35:28;8.73;;;6.00;;
33858;SDS011;20156;47.486;12.074;2024-02-16T09:37:53;10.97;;;6.40;;
33858;SDS011;20156;47.486;12.074;2024-02-16T09:40:18;8.93;;;5.90;;
33858;SDS011;20156;47.486;12.074;2024-02-16T09:42:47;6.30;;;5.60;;
33858;SDS011;20156;47.486;12.074;2024-02-16T09:45:14;6.27;;;5.57;;
33858;SDS011;20156;47.486;12.074;2024-02-16T09:47:40;11.13;;;5.90;;
33858;SDS011;20156;47.486;12.074;2024-02-16T09:50:06;7.33;;;5.37;;
33858;SDS011;20156;47.486;12.074;2024-02-16T09:52:31;9.37;;;5.30;;
33858;SDS011;20156;47.486;12.074;2024-02-16T09:54:57;10.17;;;5.67;;
33858;SDS011;20156;47.486;12.074;2024-02-16T09:57:22;9.53;;;5.70;;
33858;SDS011;20156;47.486;12.074;2024-02-16T09:59:47;11.37;;;5.10;;
33858;SDS011;20156;47.486;12.074;2024-02-16T10:02:12;7.10;;;4.90;;
33858;SDS011;20156;47.486;12.074;2024-02-16T10:04:38;9.77;;;4.73;;
33858;SDS011;20156;47.486;12.074;2024-02-16T10:07:03;6.37;;;4.30;;
33858;SDS011;20156;47.486;12.074;2024-02-16T10:09:30;5.83;;;4.40;;
33858;SDS011;20156;47.486;12.074;2024-02-16T10:11:57;5.67;;;4.50;;
33858;SDS011;20156;47.486;12.074;2024-02-16T10:14:22;5.63;;;5.00;;
33858;SDS011;20156;47.486;12.074;2024-02-16T10:16:59;5.97;;;3.92;;
33858;SDS011;20156;47.486;12.074;2024-02-16T10:19:24;5.22;;;3.42;;
33858;SDS011;20156;47.486;12.074;2024-02-16T10:21:49;4.50;;;3.30;;
33858;SDS011;20156;47.486;12.074;2024-02-16T10:24:14;3.97;;;3.22;;
33858;SDS011;20156;47.486;12.074;2024-02-16T10:26:40;3.70;;;3.40;;
33858;SDS011;20156;47.486;12.074;2024-02-16T10:29:08;3.75;;;2.55;;
33858;SDS011;20156;47.486;12.074;2024-02-16T10:31:33;11.77;;;7.22;;
33858;SDS011;20156;47.486;12.074;2024-02-16T10:33:59;6.20;;;5.63;;
33858;SDS011;20156;47.486;12.074;2024-02-16T10:36:26;4.07;;;3.50;;
33858;SDS011;20156;47.486;12.074;2024-02-16T10:38:53;3.70;;;3.17;;
33858;SDS011;20156;47.486;12.074;2024-02-16T10:41:19;4.63;;;3.85;;
33858;SDS011;20156;47.486;12.074;2024-02-16T10:43:45;5.78;;;3.63;;
33858;SDS011;20156;47.486;12.074;2024-02-16T10:46:12;2.67;;;2.20;;
33858;SDS011;20156;47.486;12.074;2024-02-16T10:48:39;3.53;;;2.90;;
33858;SDS011;20156;47.486;12.074;2024-02-16T10:51:04;3.40;;;2.60;;
33858;SDS011;20156;47.486;12.074;2024-02-16T10:53:29;3.67;;;2.08;;
33858;SDS011;20156;47.486;12.074;2024-02-16T10:56:00;3.05;;;2.25;;
33858;SDS011;20156;47.486;12.074;2024-02-16T10:58:26;8.75;;;4.60;;
33858;SDS011;20156;47.486;12.074;2024-02-16T11:00:52;3.72;;;2.50;;
33858;SDS011;20156;47.486;12.074;2024-02-16T11:03:17;4.22;;;2.22;;
33858;SDS011;20156;47.486;12.074;2024-02-16T11:05:48;2.20;;;2.00;;
33858;SDS011;20156;47.486;12.074;2024-02-16T11:08:17;2.15;;;1.92;;
33858;SDS011;20156;47.486;12.074;2024-02-16T11:13:24;3.55;;;2.10;;
33858;SDS011;20156;47.486;12.074;2024-02-16T11:15:57;2.80;;;1.90;;
33858;SDS011;20156;47.486;12.074;2024-02-16T11:18:23;4.10;;;2.25;;
33858;SDS011;20156;47.486;12.074;2024-02-16T11:20:49;2.65;;;2.10;;
33858;SDS011;20156;47.486;12.074;2024-02-16T11:23:14;2.55;;;1.98;;
33858;SDS011;20156;47.486;12.074;2024-02-16T11:25:39;3.60;;;2.20;;
33858;SDS011;20156;47.486;12.074;2024-02-16T11:28:05;5.05;;;2.70;;
33858;SDS011;20156;47.486;12.074;2024-02-16T11:30:33;3.72;;;2.65;;
33858;SDS011;20156;47.486;12.074;2024-02-16T11:33:01;2.67;;;1.95;;
33858;SDS011;20156;47.486;12.074;2024-02-16T11:35:27;4.45;;;2.10;;
33858;SDS011;20156;47.486;12.074;2024-02-16T11:37:52;3.30;;;2.00;;
33858;SDS011;20156;47.486;12.074;2024-02-16T11:40:20;3.33;;;2.25;;
33858;SDS011;20156;47.486;12.074;2024-02-16T11:42:45;2.78;;;2.25;;
33858;SDS011;20156;47.486;12.074;2024-02-16T11:45:12;1.92;;;1.40;;
33858;SDS011;20156;47.486;12.074;2024-02-16T11:47:37;2.95;;;1.50;;
33858;SDS011;20156;47.486;12.074;2024-02-16T11:52:28;2.55;;;1.73;;
33858;SDS011;20156;47.486;12.074;2024-02-16T11:54:54;2.75;;;1.70;;
33858;SDS011;20156;47.486;12.074;2024-02-16T11:57:19;3.67;;;1.70;;
33858;SDS011;20156;47.486;12.074;2024-02-16T11:59:44;2.63;;;1.80;;
33858;SDS011;20156;47.486;12.074;2024-02-16T12:02:16;5.07;;;2.00;;
33858;SDS011;20156;47.486;12.074;2024-02-16T12:04:41;2.47;;;1.65;;
33858;SDS011;20156;47.486;12.074;2024-02-16T12:07:07;2.30;;;2.03;;
33858;SDS011;20156;47.486;12.074;2024-02-16T12:09:32;1.83;;;1.45;;
33858;SDS011;20156;47.486;12.074;2024-02-16T12:11:59;1.83;;;1.38;;
33858;SDS011;20156;47.486;12.074;2024-02-16T12:14:25;2.45;;;1.40;;
33858;SDS011;20156;47.486;12.074;2024-02-16T12:16:57;1.70;;;1.50;;
33858;SDS011;20156;47.486;12.074;2024-02-16T12:19:22;2.20;;;1.00;;
33858;SDS011;20156;47.486;12.074;2024-02-16T12:21:49;2.78;;;1.20;;
33858;SDS011;20156;47.486;12.074;2024-02-16T12:24:14;2.28;;;1.40;;
33858;SDS011;20156;47.486;12.074;2024-02-16T12:26:39;1.88;;;1.30;;
33858;SDS011;20156;47.486;12.074;2024-02-16T12:29:06;3.33;;;1.30;;
33858;SDS011;20156;47.486;12.074;2024-02-16T12:31:31;4.88;;;1.80;;
33858;SDS011;20156;47.486;12.074;2024-02-16T12:33:56;2.17;;;1.80;;
33858;SDS011;20156;47.486;12.074;2024-02-16T12:36:22;2.75;;;1.63;;
33858;SDS011;20156;47.486;12.074;2024-02-16T12:38:48;2.85;;;1.42;;
33858;SDS011;20156;47.486;12.074;2024-02-16T12:41:14;3.70;;;1.83;;
33858;SDS011;20156;47.486;12.074;2024-02-16T12:43:39;3.50;;;1.98;;
33858;SDS011;20156;47.486;12.074;2024-02-16T12:46:05;2.03;;;1.40;;
33858;SDS011;20156;47.486;12.074;2024-02-16T12:48:30;2.90;;;1.40;;
33858;SDS011;20156;47.486;12.074;2024-02-16T12:50:55;1.90;;;1.50;;
33858;SDS011;20156;47.486;12.074;2024-02-16T12:53:23;1.90;;;1.42;;
33858;SDS011;20156;47.486;12.074;2024-02-16T12:55:50;2.72;;;1.73;;
33858;SDS011;20156;47.486;12.074;2024-02-16T12:58:15;1.40;;;1.30;;
33858;SDS011;20156;47.486;12.074;2024-02-16T13:00:40;3.78;;;1.50;;
33858;SDS011;20156;47.486;12.074;2024-02-16T13:03:05;2.60;;;1.67;;
33858;SDS011;20156;47.486;12.074;2024-02-16T13:05:31;2.90;;;2.03;;
33858;SDS011;20156;47.486;12.074;2024-02-16T13:07:57;4.03;;;2.13;;
33858;SDS011;20156;47.486;12.074;2024-02-16T13:10:23;4.55;;;2.10;;
33858;SDS011;20156;47.486;12.074;2024-02-16T13:12:48;2.10;;;1.90;;
33858;SDS011;20156;47.486;12.074;2024-02-16T13:15:13;3.70;;;1.83;;
33858;SDS011;20156;47.486;12.074;2024-02-16T13:17:39;3.85;;;2.00;;
33858;SDS011;20156;47.486;12.074;2024-02-16T13:20:04;2.97;;;2.08;;
33858;SDS011;20156;47.486;12.074;2024-02-16T13:22:35;2.05;;;1.83;;
33858;SDS011;20156;47.486;12.074;2024-02-16T13:25:00;4.50;;;1.83;;
33858;SDS011;20156;47.486;12.074;2024-02-16T13:27:25;5.18;;;2.20;;
33858;SDS011;20156;47.486;12.074;2024-02-16T13:29:51;3.70;;;2.20;;
33858;SDS011;20156;47.486;12.074;2024-02-16T13:32:17;4.90;;;2.20;;
33858;SDS011;20156;47.486;12.074;2024-02-16T13:34:42;3.25;;;2.33;;
33858;SDS011;20156;47.486;12.074;2024-02-16T13:37:07;5.50;;;3.30;;
33858;SDS011;20156;47.486;12.074;2024-02-16T13:39:33;3.38;;;2.42;;
33858;SDS011;20156;47.486;12.074;2024-02-16T13:41:58;2.10;;;1.85;;
33858;SDS011;20156;47.486;12.074;2024-02-16T13:44:23;2.60;;;1.50;;
33858;SDS011;20156;47.486;12.074;2024-02-16T13:46:48;4.97;;;2.22;;
33858;SDS011;20156;47.486;12.074;2024-02-16T13:49:14;3.28;;;2.40;;
33858;SDS011;20156;47.486;12.074;2024-02-16T13:51:40;3.97;;;2.42;;
33858;SDS011;20156;47.486;12.074;2024-02-16T13:54:05;4.13;;;2.60;;
33858;SDS011;20156;47.486;12.074;2024-02-16T13:56:31;2.85;;;2.25;;
33858;SDS011;20156;47.486;12.074;2024-02-16T13:58:56;4.63;;;2.08;;
33858;SDS011;20156;47.486;12.074;2024-02-16T14:01:21;3.67;;;2.30;;
33858;SDS011;20156;47.486;12.074;2024-02-16T14:03:46;3.88;;;1.90;;
33858;SDS011;20156;47.486;12.074;2024-02-16T14:06:12;4.10;;;1.60;;
33858;SDS011;20156;47.486;12.074;2024-02-16T14:08:37;4.57;;;1.70;;
33858;SDS011;20156;47.486;12.074;2024-02-16T14:11:02;3.83;;;1.80;;
33858;SDS011;20156;47.486;12.074;2024-02-16T14:13:28;4.60;;;1.48;;
33858;SDS011;20156;47.486;12.074;2024-02-16T14:15:53;2.75;;;1.63;;
33858;SDS011;20156;47.486;12.074;2024-02-16T14:18:19;1.50;;;1.35;;
33858;SDS011;20156;47.486;12.074;2024-02-16T14:20:44;2.47;;;1.48;;
33858;SDS011;20156;47.486;12.074;2024-02-16T14:23:09;1.77;;;1.20;;
33858;SDS011;20156;47.486;12.074;2024-02-16T14:25:35;3.20;;;1.35;;
33858;SDS011;20156;47.486;12.074;2024-02-16T14:28:05;2.92;;;1.50;;
33858;SDS011;20156;47.486;12.074;2024-02-16T14:30:30;2.30;;;1.60;;